Thunder radar more information blitzortung!


Radar de pluja more information rain snow radar


Visita la nostra xarxa de llocs de meteo:

Template documentation
and downloads

And another site



Extreme low temperature From: 23-02-2018 09:00 Until: 09:59 warning for: Extreme low temperature Level: Yellow info button

Pagina Historial Weather Underground text

Diari Resum Desembre 12, 2017 Unitats:  Imperial    Mètric   Tant
« Previous Dia
SegĂźent Dia »
Diari Setmana Mensual Anual Personalitzada
  Maxima: Minima: Media:
Temperatura: TemperatureC °F 1.2 °F 6.2 °F
Punt de rosada: DewpointC °F -3.9 °F -0.8 °F
Humitat: Humidity % 54 % 61 %
Wind Speed: WindSpeedKMH mph 0.0 mph 2.4 mph
RĂ fegues de vent: WindSpeedGustKMH mph - -
Vent:- - South
Pression baro: PressurehPa in 1001.9 in -
Precipitacions: 0.0 in    
Historical Graphs
 
 
Dades de taula per Desembre 12, 2017
Temps Temperatura Punt de rosada Pression baro Vent Wind Speed RĂ fegues de vent Humitat Rainfall Rate (Hourly)
TemperatureC °F DewpointC °F PressurehPa in Calm     Humidity % HourlyPrecipMM in
00:01 7.3 °F -0.7 °F 1001.9 in WSW 9.3 mph 9.3 mph 57 % 0.0 in
00:06 7.5 °F -0.5 °F 1001.9 in West 3.9 mph 3.9 mph 57 % 0.0 in
00:10 4.6 °F -1.6 °F 1007.0 in WNW 3.2 mph 3.2 mph 64 % 0.0 in
00:20 4.7 °F -1.6 °F 1008.0 in West 1.6 mph 4.8 mph 64 % 0.0 in
00:30 4.9 °F -1.3 °F 1008.0 in West 3.2 mph 3.2 mph 64 % 0.0 in
00:40 5.0 °F -1.3 °F 1008.0 in West 3.2 mph 4.8 mph 64 % 0.0 in
00:50 5.2 °F -1.1 °F 1008.0 in West 3.2 mph 6.4 mph 64 % 0.0 in
01:00 5.3 °F -0.9 °F 1008.0 in West 1.6 mph 8.0 mph 64 % 0.0 in
01:20 5.5 °F -1.0 °F 1009.0 in West 1.6 mph 3.2 mph 63 % 0.0 in
01:30 5.3 °F -1.2 °F 1009.0 in NW 1.6 mph 3.2 mph 63 % 0.0 in
01:40 5.2 °F -1.1 °F 1009.0 in NNE 1.6 mph 1.6 mph 64 % 0.0 in
02:00 5.3 °F -0.9 °F 1010.0 in NE 3.2 mph 6.4 mph 64 % 0.0 in
02:20 5.1 °F -1.2 °F 1010.0 in NE 4.8 mph 4.8 mph 64 % 0.0 in
02:30 5.1 °F -1.2 °F 1010.0 in NE 1.6 mph 6.4 mph 64 % 0.0 in
02:50 5.0 °F -1.1 °F 1010.0 in West 1.6 mph 1.6 mph 65 % 0.0 in
03:10 5.1 °F -0.9 °F 1010.7 in Calm     65 % 0.0 in
03:20 5.2 °F -0.8 °F 1011.7 in North 1.6 mph 4.8 mph 65 % 0.0 in
03:30 5.2 °F -0.8 °F 1011.7 in North 1.6 mph 3.2 mph 65 % 0.0 in
03:40 5.4 °F -0.7 °F 1011.7 in Calm   3.2 mph 65 % 0.0 in
03:50 5.6 °F -0.4 °F 1011.7 in North 3.2 mph 6.4 mph 65 % 0.0 in
04:00 5.8 °F -0.3 °F 1011.7 in NNW 1.6 mph 3.2 mph 65 % 0.0 in
04:20 6.0 °F -0.1 °F 1011.7 in NNW 1.6 mph 3.2 mph 65 % 0.0 in
04:30 6.2 °F 0.1 °F 1011.7 in Calm   1.6 mph 65 % 0.0 in
04:40 6.4 °F 0.1 °F 1012.8 in Calm   1.6 mph 64 % 0.0 in
07:10 9.1 °F 1.3 °F 1013.8 in ENE 3.2 mph 6.4 mph 58 % 0.0 in
07:20 9.1 °F 1.3 °F 1013.8 in East 1.6 mph 3.2 mph 58 % 0.0 in
07:30 9.5 °F 1.9 °F 1013.8 in East 3.2 mph 4.8 mph 59 % 0.0 in
07:40 9.6 °F 1.5 °F 1013.8 in ESE 4.8 mph 4.8 mph 57 % 0.0 in
07:50 9.7 °F 1.6 °F 1013.8 in East 3.2 mph 4.8 mph 57 % 0.0 in
08:00 9.7 °F 1.8 °F 1013.8 in Calm   3.2 mph 58 % 0.0 in
08:10 9.9 °F 2.0 °F 1013.8 in NW 3.2 mph 6.4 mph 58 % 0.0 in
08:20 9.7 °F 1.3 °F 1013.8 in West 4.8 mph 9.7 mph 56 % 0.0 in
08:30 10.1 °F 1.7 °F 1013.8 in West 3.2 mph 6.4 mph 56 % 0.0 in
08:40 10.2 °F 1.6 °F 1013.8 in WNW 3.2 mph 4.8 mph 55 % 0.0 in
08:50 10.4 °F 1.7 °F 1013.8 in West 3.2 mph 4.8 mph 55 % 0.0 in
09:20 10.7 °F 1.8 °F 1014.8 in SW 3.2 mph 4.8 mph 54 % 0.0 in
09:25 10.5 °F 1.6 °F 1014.8 in WSW 1.6 mph 4.8 mph 54 % 0.0 in
09:35 10.4 °F 1.5 °F 1014.8 in West 3.2 mph 3.2 mph 54 % 0.0 in
09:45 10.3 °F 1.4 °F 1014.8 in West 1.6 mph 3.2 mph 54 % 0.0 in
09:55 9.9 °F 1.0 °F 1014.8 in NNE 1.6 mph 4.8 mph 54 % 0.0 in
10:05 9.8 °F 0.9 °F 1014.8 in Calm   3.2 mph 54 % 0.0 in
10:42 6.4 °F 0.1 °F 1012.8 in East 3.7 mph 3.7 mph 64 % 0.0 in
10:47 6.4 °F 0.1 °F 1013.8 in WNW 1.9 mph   64 % 0.0 in
10:52 6.4 °F 0.1 °F 1013.8 in Calm     64 % 0.0 in
10:57 6.3 °F 0.0 °F 1013.8 in NE 9.3 mph 9.3 mph 64 % 0.0 in
11:02 6.3 °F 0.0 °F 1013.8 in NNE 7.4 mph 7.4 mph 64 % 0.0 in
11:07 6.4 °F 0.1 °F 1013.8 in East 3.7 mph 3.7 mph 64 % 0.0 in
11:17 6.5 °F 0.2 °F 1013.8 in NE 7.4 mph 7.4 mph 64 % 0.0 in
11:22 6.9 °F 0.6 °F 1013.8 in NNW 5.6 mph 5.6 mph 64 % 0.0 in
11:32 7.4 °F 0.8 °F 1013.8 in ESE 5.6 mph 5.6 mph 63 % 0.0 in
11:42 8.0 °F 1.4 °F 1013.8 in ENE 7.4 mph 7.4 mph 63 % 0.0 in
11:47 8.2 °F 1.3 °F 1013.8 in North 3.7 mph 5.0 mph 62 % 0.0 in
11:52 8.5 °F 1.6 °F 1013.8 in North 3.7 mph 3.7 mph 62 % 0.0 in
11:57 8.3 °F 1.4 °F 1013.8 in WNW 3.7 mph 3.7 mph 62 % 0.0 in
12:02 8.3 °F 1.2 °F 1013.8 in NNW 1.9 mph 3.2 mph 61 % 0.0 in
12:07 8.5 °F 1.4 °F 1013.8 in WNW 3.7 mph 3.7 mph 61 % 0.0 in
12:27 8.5 °F 1.4 °F 1013.8 in NE 3.7 mph 3.9 mph 61 % 0.0 in
12:32 8.8 °F 1.4 °F 1013.8 in NE 5.6 mph 5.6 mph 60 % 0.0 in
12:37 8.9 °F 1.6 °F 1013.8 in ENE 11.1 mph 11.1 mph 60 % 0.0 in
12:42 9.0 °F 1.7 °F 1013.8 in NE 5.3 mph 5.3 mph 60 % 0.0 in
12:43 9.0 °F 1.7 °F 1013.8 in NE 5.3 mph 5.3 mph 60 % 0.0 in
12:48 9.0 °F 1.7 °F 1013.8 in NE 5.3 mph 5.3 mph 60 % 0.0 in
13:45 9.0 °F 1.7 °F 1013.8 in NE 5.3 mph 5.3 mph 60 % 0.0 in
14:26 9.0 °F 1.7 °F 1013.8 in NE 5.3 mph 5.3 mph 60 % 0.0 in
16:10 9.0 °F 1.7 °F 1013.8 in North 3.7 mph   60 % 0.0 in
16:15 9.7 °F 0.8 °F 1015.8 in NNE 3.9 mph 3.9 mph 54 % 0.0 in
16:30 9.6 °F 0.7 °F 1015.8 in East 2.6 mph 2.6 mph 54 % 0.0 in
16:35 9.6 °F 0.7 °F 1015.8 in WNW 1.9 mph   54 % 0.0 in
16:40 9.6 °F 0.7 °F 1015.8 in NNW 3.7 mph 3.7 mph 54 % 0.0 in
16:45 9.6 °F 0.7 °F 1015.8 in Calm     54 % 0.0 in
16:50 9.5 °F 0.7 °F 1015.8 in NNW 3.9 mph 3.9 mph 54 % 0.0 in
16:55 9.4 °F 0.6 °F 1015.8 in North 4.2 mph   54 % 0.0 in
17:00 9.3 °F 0.4 °F 1015.8 in NNW 1.9 mph 1.9 mph 54 % 0.0 in
17:05 9.2 °F 0.4 °F 1015.8 in NNE 1.9 mph 1.9 mph 54 % 0.0 in
17:10 9.1 °F 0.3 °F 1015.8 in ENE 3.7 mph 3.7 mph 54 % 0.0 in
17:15 8.9 °F 0.3 °F 1015.8 in ENE 1.9 mph   55 % 0.0 in
17:20 8.8 °F 0.2 °F 1015.8 in East 3.7 mph   55 % 0.0 in
17:25 8.6 °F 0.1 °F 1015.8 in Calm     55 % 0.0 in
17:30 8.5 °F -0.1 °F 1015.8 in WNW 1.9 mph   55 % 0.0 in
17:50 8.0 °F -0.5 °F 1015.8 in WNW 1.9 mph 1.9 mph 55 % 0.0 in
17:55 7.8 °F -0.4 °F 1015.8 in WSW 1.9 mph 1.9 mph 56 % 0.0 in
18:05 7.6 °F -0.6 °F 1015.8 in Calm     56 % 0.0 in
18:06 7.5 °F -0.7 °F 1015.8 in Calm     56 % 0.0 in
18:11 7.5 °F -0.7 °F 1015.8 in WNW 2.3 mph   56 % 0.0 in
18:15 2.7 °F -3.0 °F 1021.9 in SSW 1.6 mph 3.2 mph 66 % 0.0 in
18:16 7.4 °F -0.8 °F 1016.8 in West 3.7 mph 3.7 mph 56 % 0.0 in
18:31 7.3 °F -0.7 °F 1017.8 in West 1.9 mph 1.9 mph 57 % 0.0 in
18:35 2.4 °F -3.3 °F 1020.9 in WSW 1.6 mph 3.2 mph 66 % 0.0 in
18:36 7.3 °F -0.7 °F 1017.8 in Calm     57 % 0.0 in
18:41 7.2 °F -0.8 °F 1017.8 in Calm     57 % 0.0 in
18:45 2.4 °F -3.3 °F 1020.9 in WSW 1.6 mph 3.2 mph 66 % 0.0 in
18:46 7.2 °F -0.8 °F 1017.8 in West 2.3 mph 2.3 mph 57 % 0.0 in
18:51 7.0 °F -0.9 °F 1017.8 in WSW 1.9 mph 1.9 mph 57 % 0.0 in
18:55 2.4 °F -3.1 °F 1021.9 in West 1.6 mph 1.6 mph 67 % 0.0 in
18:56 7.0 °F -0.9 °F 1017.8 in Calm     57 % 0.0 in
19:05 2.6 °F -2.7 °F 1021.9 in Calm   3.2 mph 68 % 0.0 in
19:06 6.9 °F -1.1 °F 1017.8 in NW 1.9 mph 2.3 mph 57 % 0.0 in
19:11 6.8 °F -1.1 °F 1017.8 in WSW 3.9 mph 3.9 mph 57 % 0.0 in
19:15 2.6 °F -2.7 °F 1021.9 in Calm   1.6 mph 68 % 0.0 in
19:16 6.7 °F -1.2 °F 1017.8 in SW 1.9 mph   57 % 0.0 in
19:25 2.2 °F -3.1 °F 1021.9 in Calm   1.6 mph 68 % 0.0 in
19:26 6.3 °F -1.4 °F 1017.8 in SW 3.7 mph 3.7 mph 58 % 0.0 in
19:31 6.2 °F -1.4 °F 1017.8 in SW 3.7 mph 3.7 mph 58 % 0.0 in
19:36 6.0 °F -1.7 °F 1017.8 in SW 3.7 mph 3.7 mph 58 % 0.0 in
19:41 5.9 °F -1.7 °F 1017.8 in SW 3.9 mph 3.9 mph 58 % 0.0 in
19:45 1.8 °F -3.5 °F 1021.9 in West 1.6 mph 3.2 mph 68 % 0.0 in
19:55 1.7 °F -3.6 °F 1021.9 in WSW 1.6 mph 4.8 mph 68 % 0.0 in
19:56 5.9 °F -1.5 °F 1017.8 in Calm     59 % 0.0 in
20:05 1.9 °F -3.4 °F 1021.9 in Calm   3.2 mph 68 % 0.0 in
20:06 6.1 °F -1.6 °F 1018.8 in NNW 1.9 mph 1.9 mph 58 % 0.0 in
20:15 1.9 °F -3.2 °F 1021.9 in Calm   3.2 mph 69 % 0.0 in
20:16 6.1 °F -1.6 °F 1018.8 in Calm     58 % 0.0 in
20:21 6.0 °F -1.4 °F 1018.8 in Calm     59 % 0.0 in
20:25 2.2 °F -2.9 °F 1021.9 in WNW 1.6 mph 3.2 mph 69 % 0.0 in
20:26 6.1 °F -1.3 °F 1018.8 in Calm     59 % 0.0 in
20:31 6.0 °F -1.4 °F 1018.8 in Calm     59 % 0.0 in
20:35 2.3 °F -2.8 °F 1021.9 in NW 3.2 mph 4.8 mph 69 % 0.0 in
20:36 5.8 °F -1.6 °F 1018.8 in West 2.6 mph 2.6 mph 59 % 0.0 in
20:41 5.9 °F -1.3 °F 1018.8 in West 1.9 mph 1.9 mph 60 % 0.0 in
20:51 5.9 °F -1.3 °F 1018.8 in West 3.7 mph 3.7 mph 60 % 0.0 in
20:55 2.0 °F -3.3 °F 1021.9 in SW 1.6 mph 4.8 mph 68 % 0.0 in
21:05 5.7 °F -1.4 °F 1018.8 in NE 3.7 mph   60 % 0.0 in
21:10 5.6 °F -1.3 °F 1018.8 in Calm     61 % 0.0 in
21:15 5.7 °F -1.2 °F 1018.8 in NE 5.6 mph 5.6 mph 61 % 0.0 in
21:30 5.4 °F -1.5 °F 1018.8 in North 1.9 mph   61 % 0.0 in
21:35 5.3 °F -1.6 °F 1018.8 in Calm     61 % 0.0 in
21:40 5.1 °F -1.8 °F 1018.8 in Calm     61 % 0.0 in
21:45 4.9 °F -2.0 °F 1018.8 in Calm     61 % 0.0 in
21:55 4.3 °F -2.6 °F 1018.8 in WSW 3.9 mph 3.9 mph 61 % 0.0 in
22:00 4.5 °F -2.4 °F 1019.9 in WSW 3.9 mph 3.9 mph 61 % 0.0 in
22:05 2.2 °F -3.1 °F 1021.9 in NNE 1.6 mph 3.2 mph 68 % 0.0 in
22:10 4.3 °F -2.3 °F 1019.9 in SW 3.7 mph   62 % 0.0 in
22:15 4.2 °F -2.4 °F 1019.9 in Calm     62 % 0.0 in
22:20 4.1 °F -2.3 °F 1019.9 in ENE 1.9 mph 2.3 mph 63 % 0.0 in
22:25 4.0 °F -2.4 °F 1019.9 in Calm     63 % 0.0 in
22:30 4.0 °F -2.4 °F 1020.9 in Calm     63 % 0.0 in
22:35 2.0 °F -3.1 °F 1021.9 in NE 3.2 mph 4.8 mph 69 % 0.0 in
22:40 3.9 °F -2.3 °F 1020.9 in Calm     64 % 0.0 in
22:45 3.9 °F -2.3 °F 1018.8 in Calm     64 % 0.0 in
22:50 3.8 °F -2.4 °F 1018.8 in Calm     64 % 0.0 in
22:55 3.7 °F -2.5 °F 1018.8 in NNE 3.7 mph 3.7 mph 64 % 0.0 in
23:00 3.8 °F -2.2 °F 1018.8 in NNE 3.7 mph 3.7 mph 65 % 0.0 in
23:10 3.8 °F -2.2 °F 1018.8 in Calm     65 % 0.0 in
23:15 3.7 °F -2.5 °F 1019.9 in NW 1.9 mph 1.9 mph 64 % 0.0 in
23:20 3.7 °F -2.3 °F 1019.9 in WNW 1.9 mph   65 % 0.0 in
23:25 3.5 °F -2.4 °F 1019.9 in Calm     65 % 0.0 in
23:30 3.2 °F -2.8 °F 1020.9 in WSW 2.3 mph   65 % 0.0 in
23:31 3.2 °F -2.8 °F 1020.9 in WSW 2.6 mph 2.6 mph 65 % 0.0 in
23:35 1.4 °F -3.9 °F 1021.9 in Calm   1.6 mph 68 % 0.0 in
23:41 3.0 °F -2.9 °F 1021.9 in West 1.9 mph 1.9 mph 65 % 0.0 in
23:45 1.3 °F -3.9 °F 1021.9 in NW 1.6 mph 3.2 mph 68 % 0.0 in
23:55 1.2 °F -3.9 °F 1021.9 in Calm   1.6 mph 69 % 0.0 in
23:56 3.0 °F -2.7 °F 1021.9 in Calm     66 % 0.0 in
Meteo Sesrovires
Elogis d' Weather Underground - 3.25 mb

Guio original per  Jim McMurry - jmcmurry@mwt.net Adaptat per a la plantilla per  Wim van der Kuil - Leuven-Template.eu

Trobareu la nostra informacio del temps tambe a:

Weather Underground

AWEKAS